Kamen'-na-Obi, Russia
Current Conditions -  °F | °C
As of 8:30 AM on Saturday 25 Oct 2014 (Local Time) from UNBB Reporting Station
Light Rain Light Rain  
Wind Chill: 38°   Ceiling: 3800
Heat Index: 45°   Visibility: 6mi
Dew Point: 39°   Wind: 16mph
Humidity: 81%   Direction: 180°S
Pressure: 29.77"   Gusts: NA
Location:  53.82°N, 81.27°E
Report Text: UNBB 250130Z 18007MPS 9999 -RA BKN038 07/04 Q1008 NOSIG RMKQFE733/0978 24190058
Loading
Personal Weather Stations






























Interactive Weather Map New forecast layout! Learn more

10-Day Weather Forecast

Advertisements
Track Severe Weather on mobile